createdAt,value
2024-04-25T00:01:38.112Z,2.76
2024-04-25T00:04:05.095Z,2.92
2024-04-25T00:06:32.094Z,3.08
2024-04-25T00:08:59.051Z,3.05
2024-04-25T00:11:26.095Z,3.02
2024-04-25T00:13:53.187Z,2.95
2024-04-25T00:16:20.241Z,3.02
2024-04-25T00:18:47.547Z,3.09
2024-04-25T00:21:14.507Z,3.17
2024-04-25T00:23:41.507Z,3.17
2024-04-25T00:26:08.900Z,3.12
2024-04-25T00:28:35.943Z,3.17
2024-04-25T00:31:03.096Z,3.27
2024-04-25T00:33:30.261Z,3.19
2024-04-25T00:35:57.343Z,3.13
2024-04-25T00:38:24.326Z,3.09
2024-04-25T00:40:51.350Z,3.18
2024-04-25T00:43:18.391Z,3.41
2024-04-25T00:45:45.349Z,3.25
2024-04-25T00:48:12.478Z,2.99
2024-04-25T00:50:39.930Z,2.95
2024-04-25T00:53:07.039Z,2.93
2024-04-25T00:55:34.351Z,3.22
2024-04-25T00:58:01.374Z,3.13
2024-04-25T01:00:28.333Z,3.05
2024-04-25T01:02:55.447Z,3.05
2024-04-25T01:05:22.800Z,3.33
2024-04-25T01:07:49.865Z,3.40
2024-04-25T01:10:16.921Z,3.27
2024-04-25T01:12:44.322Z,3.20
2024-04-25T01:15:11.303Z,3.27
2024-04-25T01:17:38.629Z,3.41
2024-04-25T01:20:06.079Z,3.21
2024-04-25T01:22:33.057Z,3.23
2024-04-25T01:25:00.002Z,3.27
2024-04-25T01:27:26.949Z,3.14
2024-04-25T01:29:53.911Z,3.41
2024-04-25T01:32:20.897Z,3.30
2024-04-25T01:34:48.235Z,3.29
2024-04-25T01:37:15.530Z,3.27
2024-04-25T01:39:42.583Z,3.48
2024-04-25T01:42:09.539Z,3.33
2024-04-25T01:44:36.666Z,3.60
2024-04-25T01:47:03.947Z,3.56
2024-04-25T01:49:31.284Z,3.63
2024-04-25T01:51:58.306Z,3.62
2024-04-25T01:54:25.582Z,3.58
2024-04-25T01:56:52.637Z,3.65
2024-04-25T01:59:20.047Z,3.68
2024-04-25T02:01:46.989Z,3.68
2024-04-25T02:04:14.060Z,3.71
2024-04-25T02:06:41.031Z,3.79
2024-04-25T02:09:08.065Z,3.68
2024-04-25T02:11:35.146Z,3.64
2024-04-25T02:14:03.173Z,3.67
2024-04-25T02:16:30.238Z,3.74
2024-04-25T02:18:57.219Z,3.73
2024-04-25T02:21:24.218Z,3.71
2024-04-25T02:23:51.164Z,3.75
2024-04-25T02:26:18.591Z,3.61
2024-04-25T02:28:45.966Z,3.84
2024-04-25T02:31:12.904Z,3.75
2024-04-25T02:33:39.875Z,3.97
2024-04-25T02:36:07.235Z,4.13
2024-04-25T02:38:34.347Z,3.92
2024-04-25T02:41:01.496Z,3.89
2024-04-25T02:43:28.859Z,4.33
2024-04-25T02:45:55.821Z,4.00
2024-04-25T02:48:22.877Z,4.09
2024-04-25T02:50:50.240Z,4.18
2024-04-25T02:53:17.541Z,3.74
2024-04-25T02:55:44.545Z,3.81
2024-04-25T02:58:11.852Z,3.54
2024-04-25T03:00:38.897Z,3.80
2024-04-25T03:03:05.978Z,3.48
2024-04-25T03:05:33.188Z,3.49
2024-04-25T03:08:00.234Z,3.21
2024-04-25T03:10:27.322Z,3.33
2024-04-25T03:12:54.364Z,3.50
2024-04-25T03:15:21.385Z,4.04
2024-04-25T03:17:48.796Z,4.11
2024-04-25T03:20:15.958Z,4.21
2024-04-25T03:22:43.039Z,4.30
2024-04-25T03:25:10.404Z,4.16
2024-04-25T03:27:37.358Z,4.46
2024-04-25T03:30:04.332Z,4.62
2024-04-25T03:32:31.475Z,4.62
2024-04-25T03:34:58.539Z,5.13
2024-04-25T03:37:25.620Z,5.20
2024-04-25T03:39:52.561Z,5.15
2024-04-25T03:42:19.524Z,4.76
2024-04-25T03:44:46.550Z,4.73
2024-04-25T03:47:13.651Z,4.65
2024-04-25T03:49:40.649Z,4.59
2024-04-25T03:52:07.827Z,4.51
2024-04-25T03:54:34.777Z,4.60
2024-04-25T03:57:01.751Z,4.37
2024-04-25T03:59:29.102Z,4.51
2024-04-25T04:01:56.410Z,4.47
2024-04-25T04:04:23.700Z,4.02
2024-04-25T04:06:50.726Z,4.36
2024-04-25T04:09:18.163Z,4.40
2024-04-25T04:11:45.277Z,4.36
2024-04-25T04:14:12.711Z,4.29
2024-04-25T04:16:39.774Z,4.30
2024-04-25T04:19:06.751Z,4.14
2024-04-25T04:21:33.719Z,3.87
2024-04-25T04:24:00.752Z,4.65
2024-04-25T04:26:28.258Z,4.82
2024-04-25T04:28:55.294Z,4.39
2024-04-25T04:31:22.676Z,4.18
2024-04-25T04:33:49.942Z,4.19
2024-04-25T04:36:17.112Z,3.53
2024-04-25T04:38:44.582Z,3.08
2024-04-25T04:41:11.715Z,2.98
2024-04-25T04:43:38.730Z,3.06
2024-04-25T04:46:05.761Z,2.85
2024-04-25T04:48:35.085Z,6.63
2024-04-25T04:51:02.618Z,10.90
2024-04-25T04:53:29.989Z,4.68
2024-04-25T04:55:56.951Z,4.45
2024-04-25T04:58:23.909Z,4.33
2024-04-25T05:00:51.203Z,4.42
2024-04-25T05:03:18.359Z,4.74
2024-04-25T05:05:45.788Z,4.95
2024-04-25T05:08:12.873Z,4.95
2024-04-25T05:10:39.850Z,7.70
2024-04-25T05:13:06.820Z,7.02
2024-04-25T05:15:33.916Z,5.84
2024-04-25T05:18:00.951Z,5.32
2024-04-25T05:20:28.054Z,5.66
2024-04-25T05:22:55.370Z,5.13
2024-04-25T05:25:22.326Z,5.21
2024-04-25T05:27:49.297Z,5.20
2024-04-25T05:30:16.245Z,4.84
2024-04-25T05:32:43.414Z,5.09
2024-04-25T05:35:10.873Z,5.49
2024-04-25T05:37:37.828Z,4.99
2024-04-25T05:40:04.970Z,5.45
2024-04-25T05:42:31.990Z,5.94
2024-04-25T05:44:58.967Z,6.07
2024-04-25T05:47:26.369Z,6.95
2024-04-25T05:49:53.720Z,5.72
2024-04-25T05:52:20.664Z,5.11
2024-04-25T05:54:47.626Z,4.86
2024-04-25T05:57:14.803Z,4.82
2024-04-25T05:59:41.778Z,4.91
2024-04-25T06:02:08.823Z,4.75
2024-04-25T06:04:35.882Z,4.68
2024-04-25T06:07:02.973Z,4.58
2024-04-25T06:09:30.267Z,4.78
2024-04-25T06:11:57.741Z,5.04
2024-04-25T06:14:24.862Z,4.80
2024-04-25T06:16:52.316Z,4.97
2024-04-25T06:19:19.560Z,4.71
2024-04-25T06:21:46.854Z,4.56
2024-04-25T06:24:14.169Z,4.25
2024-04-25T06:26:41.329Z,4.19
2024-04-25T06:29:08.449Z,4.13
2024-04-25T06:31:35.424Z,3.83
2024-04-25T06:34:02.876Z,3.31
2024-04-25T06:36:29.958Z,3.92
2024-04-25T06:38:56.996Z,3.94
2024-04-25T06:41:24.305Z,4.32
2024-04-25T06:43:51.358Z,4.73
2024-04-25T06:46:18.736Z,4.67
2024-04-25T06:48:45.883Z,4.94
2024-04-25T06:51:13.000Z,5.20
2024-04-25T06:53:40.098Z,4.91
2024-04-25T06:56:07.091Z,5.21
2024-04-25T06:58:34.333Z,6.53
2024-04-25T07:01:01.336Z,5.68
2024-04-25T07:03:28.602Z,4.60
2024-04-25T07:05:55.596Z,5.60
2024-04-25T07:08:22.945Z,4.98
2024-04-25T07:10:50.046Z,4.64
2024-04-25T07:13:17.367Z,4.45
2024-04-25T07:15:44.380Z,4.40
2024-04-25T07:18:11.515Z,4.61
2024-04-25T07:20:38.663Z,4.92
2024-04-25T07:23:05.967Z,4.73
2024-04-25T07:25:32.919Z,4.44
2024-04-25T07:28:00.003Z,4.73
2024-04-25T07:30:26.951Z,4.94
2024-04-25T07:32:54.515Z,4.53
2024-04-25T07:35:21.614Z,4.95
2024-04-25T07:37:49.033Z,4.55
2024-04-25T07:40:16.185Z,4.77
2024-04-25T07:42:43.620Z,4.39
2024-04-25T07:45:10.949Z,4.50
2024-04-25T07:47:38.418Z,4.35
2024-04-25T07:50:05.449Z,3.99
2024-04-25T07:52:32.501Z,3.70
2024-04-25T07:54:59.443Z,3.32
2024-04-25T07:57:26.401Z,3.25
2024-04-25T08:02:47.020Z,3.70
2024-04-25T08:05:16.110Z,3.65
2024-04-25T08:07:43.152Z,3.76
2024-04-25T08:10:10.144Z,3.85
2024-04-25T08:12:37.081Z,3.84
2024-04-25T08:15:04.362Z,3.71
2024-04-25T08:17:31.798Z,3.57
2024-04-25T08:19:58.808Z,3.61
2024-04-25T08:22:26.141Z,4.01
2024-04-25T08:24:53.130Z,4.14
2024-04-25T08:27:20.103Z,4.26
2024-04-25T08:29:47.219Z,3.99
2024-04-25T08:32:14.341Z,3.29
2024-04-25T08:34:41.348Z,3.54
2024-04-25T08:37:08.308Z,3.66
2024-04-25T08:39:35.434Z,15.09
2024-04-25T08:42:02.400Z,8.56
2024-04-25T08:44:29.367Z,4.02
2024-04-25T08:46:56.360Z,3.83
2024-04-25T08:49:23.434Z,4.24
2024-04-25T08:51:50.804Z,4.04
2024-04-25T08:54:18.082Z,3.94
2024-04-25T08:56:45.125Z,3.72
2024-04-25T08:59:12.221Z,3.94
2024-04-25T09:01:39.633Z,3.86
2024-04-25T09:04:06.713Z,4.14
2024-04-25T09:06:33.779Z,4.00
2024-04-25T09:09:01.172Z,3.83
2024-04-25T09:11:28.181Z,3.75
2024-04-25T09:13:55.590Z,3.72
2024-04-25T09:16:22.646Z,3.70
2024-04-25T09:18:49.864Z,3.53
2024-04-25T09:21:16.813Z,3.15
2024-04-25T09:23:44.002Z,2.98
2024-04-25T09:26:11.100Z,3.12
2024-04-25T09:28:40.878Z,2.84
2024-04-25T09:31:09.762Z,2.72
2024-04-25T09:33:36.897Z,2.57
2024-04-25T09:36:03.987Z,2.35
2024-04-25T09:38:30.986Z,2.60
2024-04-25T09:40:58.051Z,2.41
2024-04-25T09:43:25.076Z,2.42
2024-04-25T09:45:52.177Z,2.34
2024-04-25T09:48:19.268Z,2.32
2024-04-25T09:50:46.361Z,2.55
2024-04-25T09:53:14.046Z,2.16
2024-04-25T09:55:41.019Z,2.61
2024-04-25T09:58:08.198Z,2.77
2024-04-25T10:00:35.182Z,3.67
2024-04-25T10:03:02.376Z,3.83
2024-04-25T10:05:29.487Z,3.05
2024-04-25T10:07:56.502Z,2.74
2024-04-25T10:10:23.458Z,2.64
2024-04-25T10:12:50.403Z,2.31
2024-04-25T10:15:17.363Z,2.72
2024-04-25T10:17:44.507Z,2.45
2024-04-25T10:20:11.572Z,2.01
2024-04-25T10:22:41.439Z,2.32
2024-04-25T10:25:09.200Z,2.27
2024-04-25T10:27:36.158Z,2.24
2024-04-25T10:30:03.188Z,2.09
2024-04-25T10:32:30.237Z,2.31
2024-04-25T10:34:57.255Z,2.13
2024-04-25T10:37:24.238Z,2.15
2024-04-25T10:39:51.209Z,2.07
2024-04-25T10:42:18.165Z,2.06
2024-04-25T10:44:45.192Z,2.16
2024-04-25T10:47:12.301Z,2.15
2024-04-25T10:49:39.723Z,2.09
2024-04-25T10:52:06.778Z,2.25
2024-04-25T10:54:33.734Z,2.29
2024-04-25T10:57:00.701Z,2.43
2024-04-25T10:59:27.697Z,3.53
2024-04-25T11:01:55.902Z,2.50
2024-04-25T11:04:23.169Z,2.13
2024-04-25T11:06:50.131Z,3.42
2024-04-25T11:09:17.090Z,3.41
2024-04-25T11:11:44.119Z,2.53
2024-04-25T11:14:11.165Z,2.29
2024-04-25T11:16:38.292Z,2.45
2024-04-25T11:19:13.648Z,2.19
2024-04-25T11:21:43.944Z,2.19
2024-04-25T11:24:11.013Z,1.91
2024-04-25T11:26:38.428Z,1.92
2024-04-25T11:29:05.407Z,1.93
2024-04-25T11:31:32.412Z,3.74
2024-04-25T11:33:59.528Z,4.04
2024-04-25T11:36:29.353Z,2.73
2024-04-25T11:38:58.183Z,2.12
2024-04-25T11:41:25.359Z,2.07
2024-04-25T11:43:52.414Z,1.87
2024-04-25T11:46:19.702Z,1.77
2024-04-25T11:48:46.788Z,1.87
2024-04-25T11:51:13.782Z,1.80
2024-04-25T11:53:40.798Z,1.86
2024-04-25T11:56:07.763Z,1.77
2024-04-25T11:58:34.708Z,1.80
2024-04-25T12:01:01.704Z,1.80
2024-04-25T12:03:28.747Z,1.88
2024-04-25T12:05:55.812Z,1.97
2024-04-25T12:08:22.860Z,1.95
2024-04-25T12:10:50.122Z,1.73
2024-04-25T12:13:17.174Z,1.76
2024-04-25T12:15:44.185Z,1.71
2024-04-25T12:18:11.536Z,1.69
2024-04-25T12:20:38.663Z,1.75
2024-04-25T12:23:05.689Z,1.65
2024-04-25T12:25:32.685Z,1.58
2024-04-25T12:27:59.644Z,1.70
2024-04-25T12:30:26.619Z,1.73
2024-04-25T12:32:53.695Z,1.90
2024-04-25T12:35:20.827Z,1.69
2024-04-25T12:37:47.817Z,1.71
2024-04-25T12:40:15.235Z,1.76
2024-04-25T12:42:42.218Z,1.87
2024-04-25T12:45:09.772Z,1.84
2024-04-25T12:47:37.516Z,1.80
2024-04-25T12:50:04.497Z,1.96
2024-04-25T12:52:31.521Z,2.15
2024-04-25T12:54:58.567Z,2.02
2024-04-25T12:57:25.686Z,2.23
2024-04-25T12:59:52.792Z,2.97
2024-04-25T13:02:19.809Z,2.82
2024-04-25T13:04:46.843Z,1.78
2024-04-25T13:07:13.932Z,1.62
2024-04-25T13:09:40.929Z,1.82
2024-04-25T13:12:07.929Z,1.78
2024-04-25T13:14:34.984Z,1.78
2024-04-25T13:17:01.982Z,1.90
2024-04-25T13:19:28.993Z,1.70
2024-04-25T13:21:56.003Z,1.82
2024-04-25T13:24:23.043Z,1.91
2024-04-25T13:26:50.152Z,1.95
2024-04-25T13:29:17.264Z,1.74
2024-04-25T13:31:44.313Z,1.80
2024-04-25T13:34:11.739Z,1.97
2024-04-25T13:36:38.791Z,2.06
2024-04-25T13:39:05.843Z,1.86
2024-04-25T13:41:32.829Z,1.88
2024-04-25T13:43:59.816Z,1.82
2024-04-25T13:46:26.793Z,2.70
2024-04-25T13:48:53.935Z,2.42
2024-04-25T13:51:21.045Z,1.85
2024-04-25T13:53:48.164Z,1.91
2024-04-25T13:56:15.161Z,1.79
2024-04-25T13:58:42.158Z,1.87
2024-04-25T14:01:09.464Z,1.77
2024-04-25T14:03:36.588Z,1.86
2024-04-25T14:06:03.673Z,1.89
2024-04-25T14:08:30.669Z,1.79
2024-04-25T14:10:57.676Z,1.72
2024-04-25T14:13:24.644Z,1.80
2024-04-25T14:15:51.630Z,1.73
2024-04-25T14:18:18.767Z,1.98
2024-04-25T14:20:45.754Z,2.07
2024-04-25T14:23:13.180Z,1.87
2024-04-25T14:25:40.272Z,1.89
2024-04-25T14:28:07.227Z,1.98
2024-04-25T14:30:34.239Z,1.85
2024-04-25T14:33:01.461Z,1.87
2024-04-25T14:35:28.696Z,1.86
2024-04-25T14:37:55.727Z,2.10
2024-04-25T14:40:23.099Z,1.90
2024-04-25T14:42:50.287Z,2.04
2024-04-25T14:45:17.304Z,2.39
2024-04-25T14:47:44.333Z,2.44
2024-04-25T14:50:11.360Z,2.25
2024-04-25T14:52:38.309Z,2.42
2024-04-25T14:55:05.253Z,2.77
2024-04-25T14:57:32.209Z,2.45
2024-04-25T14:59:59.532Z,2.32
2024-04-25T15:02:26.852Z,2.33
2024-04-25T15:04:54.163Z,2.38
2024-04-25T15:07:21.141Z,2.38
2024-04-25T15:09:48.117Z,2.45
2024-04-25T15:12:15.087Z,2.60
2024-04-25T15:14:42.166Z,2.36
2024-04-25T15:17:09.602Z,2.40
2024-04-25T15:19:36.617Z,2.77
2024-04-25T15:22:03.577Z,2.93
2024-04-25T15:24:30.545Z,2.46
2024-04-25T15:26:57.550Z,2.82
2024-04-25T15:29:24.559Z,2.78
2024-04-25T15:31:51.559Z,3.03
2024-04-25T15:34:18.621Z,2.98
2024-04-25T15:36:45.686Z,2.93
2024-04-25T15:39:12.650Z,3.05
2024-04-25T15:41:39.652Z,2.91
2024-04-25T15:44:06.667Z,2.86
2024-04-25T15:46:34.927Z,2.90
2024-04-25T15:49:03.355Z,2.96
2024-04-25T15:51:30.463Z,3.02
2024-04-25T15:53:57.480Z,2.83
2024-04-25T15:56:24.466Z,2.93
2024-04-25T15:58:51.436Z,2.94
2024-04-25T16:01:18.489Z,2.85
2024-04-25T16:03:45.567Z,2.66
2024-04-25T16:06:12.586Z,2.66
2024-04-25T16:08:39.616Z,2.72
2024-04-25T16:11:06.654Z,2.54
2024-04-25T16:13:33.630Z,2.72
2024-04-25T16:16:00.615Z,2.41
2024-04-25T16:18:27.723Z,2.27
2024-04-25T16:20:54.777Z,2.67
2024-04-25T16:23:21.781Z,2.49
2024-04-25T16:25:48.802Z,2.31
2024-04-25T16:28:15.764Z,2.19
2024-04-25T16:30:42.747Z,2.55
2024-04-25T16:33:10.252Z,2.28
2024-04-25T16:35:37.330Z,2.45
2024-04-25T16:38:04.338Z,2.69
2024-04-25T16:40:31.295Z,2.24
2024-04-25T16:42:58.243Z,2.38
2024-04-25T16:45:25.195Z,2.36
2024-04-25T16:47:52.297Z,2.29
2024-04-25T16:50:19.454Z,2.32
2024-04-25T16:52:46.424Z,2.35
2024-04-25T16:55:13.400Z,2.38
2024-04-25T16:57:40.364Z,2.19
2024-04-25T17:00:07.351Z,2.26
2024-04-25T17:02:34.375Z,2.09
2024-04-25T17:05:01.458Z,1.98
2024-04-25T17:07:28.498Z,2.09
2024-04-25T17:09:55.455Z,2.21
2024-04-25T17:12:22.441Z,2.23
2024-04-25T17:14:49.521Z,2.08
2024-04-25T17:17:16.898Z,2.00
2024-04-25T17:19:43.947Z,2.22
2024-04-25T17:22:10.986Z,2.19
2024-04-25T17:24:37.999Z,1.88
2024-04-25T17:27:04.970Z,1.96
2024-04-25T17:29:31.923Z,1.87
2024-04-25T17:31:58.880Z,2.24
2024-04-25T17:34:25.840Z,2.04
2024-04-25T17:36:52.814Z,1.97
2024-04-25T17:39:19.795Z,2.56
2024-04-25T17:41:48.099Z,2.28
2024-04-25T17:44:15.276Z,2.13
2024-04-25T17:46:42.241Z,2.21
2024-04-25T17:49:09.353Z,2.29
2024-04-25T17:51:36.511Z,2.08
2024-04-25T17:54:03.572Z,1.97
2024-04-25T17:56:30.583Z,1.91
2024-04-25T17:58:57.635Z,1.96
2024-04-25T18:01:24.592Z,1.92
2024-04-25T18:03:51.554Z,1.95
2024-04-25T18:06:18.540Z,2.06
2024-04-25T18:08:45.679Z,1.78
2024-04-25T18:11:12.757Z,1.90
2024-04-25T18:13:39.794Z,2.19
2024-04-25T18:16:06.750Z,1.90
2024-04-25T18:18:33.921Z,1.80
2024-04-25T18:21:01.098Z,1.87
2024-04-25T18:23:28.124Z,1.76
2024-04-25T18:25:55.078Z,1.73
2024-04-25T18:28:22.051Z,1.97
2024-04-25T18:30:49.008Z,1.94
2024-04-25T18:33:16.076Z,1.94
2024-04-25T18:35:43.098Z,1.93
2024-04-25T18:38:10.110Z,1.82
2024-04-25T18:40:37.088Z,1.59
2024-04-25T18:43:04.036Z,1.71
2024-04-25T18:45:30.984Z,1.71
2024-04-25T18:47:58.093Z,1.80
2024-04-25T18:50:25.130Z,1.70
2024-04-25T18:52:52.085Z,1.87
2024-04-25T18:55:19.047Z,1.62
2024-04-25T18:57:46.025Z,1.53
2024-04-25T19:00:12.980Z,1.83
2024-04-25T19:02:40.100Z,2.57
2024-04-25T19:05:07.102Z,3.14
2024-04-25T19:07:34.056Z,2.89
2024-04-25T19:10:01.120Z,2.78
2024-04-25T19:12:28.218Z,2.82
2024-04-25T19:14:55.223Z,2.94
2024-04-25T19:17:22.249Z,3.09
2024-04-25T19:19:49.259Z,3.25
2024-04-25T19:22:16.276Z,2.74
2024-04-25T19:24:43.257Z,2.75
2024-04-25T19:27:10.319Z,2.34
2024-04-25T19:29:38.942Z,2.31
2024-04-25T19:32:06.152Z,2.11
2024-04-25T19:34:33.167Z,2.25
2024-04-25T19:37:00.107Z,2.08
2024-04-25T19:39:27.085Z,1.67
2024-04-25T19:41:54.100Z,1.79
2024-04-25T19:44:21.465Z,1.93
2024-04-25T19:46:48.519Z,1.85
2024-04-25T19:49:15.482Z,1.85
2024-04-25T19:51:42.769Z,1.90
2024-04-25T19:54:09.795Z,2.45
2024-04-25T19:56:36.788Z,2.72
2024-04-25T19:59:03.869Z,2.96
2024-04-25T20:01:30.863Z,3.29
2024-04-25T20:03:57.823Z,3.69
2024-04-25T20:06:24.796Z,3.42
2024-04-25T20:08:51.794Z,3.00
2024-04-25T20:11:19.038Z,2.96
2024-04-25T20:13:46.133Z,3.35
2024-04-25T20:16:13.127Z,3.28
2024-04-25T20:18:40.173Z,2.60
2024-04-25T20:21:08.338Z,2.51
2024-04-25T20:23:35.385Z,2.66
2024-04-25T20:26:02.433Z,2.56
2024-04-25T20:28:29.393Z,1.94
2024-04-25T20:30:56.368Z,2.13
2024-04-25T20:33:23.432Z,3.13
2024-04-25T20:35:50.498Z,3.48
2024-04-25T20:38:17.585Z,2.88
2024-04-25T20:40:44.536Z,2.87
2024-04-25T20:43:11.523Z,2.99
2024-04-25T20:45:38.475Z,3.19
2024-04-25T20:48:05.566Z,3.32
2024-04-25T20:50:32.597Z,3.13
2024-04-25T20:52:59.583Z,2.77
2024-04-25T20:55:26.565Z,3.10
2024-04-25T20:57:53.540Z,3.66
2024-04-25T21:00:20.513Z,4.06
2024-04-25T21:02:47.785Z,3.59
2024-04-25T21:05:14.801Z,3.15
2024-04-25T21:07:41.791Z,3.34
2024-04-25T21:10:08.749Z,3.35
2024-04-25T21:12:35.712Z,3.38
2024-04-25T21:15:02.737Z,3.23
2024-04-25T21:17:29.995Z,2.89
2024-04-25T21:19:59.864Z,2.91
2024-04-25T21:22:26.821Z,2.77
2024-04-25T21:24:53.810Z,2.54
2024-04-25T21:27:20.752Z,2.61
2024-04-25T21:29:47.737Z,2.56
2024-04-25T21:32:15.240Z,2.27
2024-04-25T21:34:45.259Z,2.47
2024-04-25T21:37:12.229Z,2.46
2024-04-25T21:39:39.242Z,2.35
2024-04-25T21:42:06.217Z,2.40
2024-04-25T21:44:33.286Z,2.36
2024-04-25T21:47:00.264Z,2.43
2024-04-25T21:49:27.380Z,2.37
2024-04-25T21:51:54.388Z,2.50
2024-04-25T21:54:21.375Z,2.26
2024-04-25T21:56:48.351Z,2.43
2024-04-25T21:59:15.349Z,2.70
2024-04-25T22:01:42.553Z,2.43
2024-04-25T22:04:09.539Z,2.53
2024-04-25T22:06:36.488Z,2.63
2024-04-25T22:09:03.453Z,3.09
2024-04-25T22:11:30.456Z,3.09
2024-04-25T22:13:57.452Z,4.18
2024-04-25T22:16:24.417Z,3.98
2024-04-25T22:18:51.946Z,3.48
2024-04-25T22:21:19.105Z,2.99
2024-04-25T22:23:46.092Z,2.97
2024-04-25T22:26:13.119Z,2.77
2024-04-25T22:28:40.496Z,2.75
2024-04-25T22:31:07.467Z,2.71
2024-04-25T22:33:34.491Z,2.69
2024-04-25T22:36:01.587Z,2.55
2024-04-25T22:38:28.679Z,2.80
2024-04-25T22:40:55.706Z,2.48
2024-04-25T22:43:22.722Z,2.05
2024-04-25T22:45:49.830Z,2.08
2024-04-25T22:48:16.953Z,2.07
2024-04-25T22:50:44.008Z,2.07
2024-04-25T22:53:10.989Z,1.94
2024-04-25T22:55:37.957Z,2.13
2024-04-25T22:58:04.962Z,1.99
2024-04-25T23:00:31.994Z,1.99
2024-04-25T23:02:59.063Z,2.18
2024-04-25T23:05:26.237Z,2.23
2024-04-25T23:07:53.299Z,2.18
2024-04-25T23:10:20.270Z,2.21
2024-04-25T23:12:47.254Z,2.46
2024-04-25T23:15:14.317Z,2.38
2024-04-25T23:17:41.405Z,2.41
2024-04-25T23:20:08.491Z,2.48
2024-04-25T23:22:35.591Z,2.11
2024-04-25T23:25:02.586Z,2.11
2024-04-25T23:27:29.572Z,2.09
2024-04-25T23:29:56.594Z,2.33
2024-04-25T23:32:23.601Z,2.21
2024-04-25T23:34:50.614Z,2.28
2024-04-25T23:37:17.660Z,2.27
2024-04-25T23:39:44.745Z,2.27
2024-04-25T23:42:12.065Z,2.26
2024-04-25T23:44:39.087Z,2.20
2024-04-25T23:47:06.184Z,2.25
2024-04-25T23:49:33.243Z,2.37
2024-04-25T23:52:00.243Z,2.20
2024-04-25T23:54:27.248Z,2.25
2024-04-25T23:56:54.303Z,2.08
2024-04-25T23:59:21.835Z,2.22
